SMRA00 UAOL 161500
AAXX 16151
01001 41250 71007 10045 20038 39953 49964 58020 71054 876//=
01002 46/// /1509 10004 21012 39948 49956 52013=
01003 41360 72603 10009 20000 39972 49986 52019 71522 876//=
01006 46/// /1502 10008 20001 39973 49989 52012=
01007 46/// /1901 10024 21003 39956 49966 53019=
01008 46/// /1601 10019 21002 39942 49977 53018=
01009 46/// /1310 10012 21009 39992 49999 52011=
01010 26/// /2406 10080 20039 30099 40115 53016 333 60005=
01011 46/// /1107 11017 21041 39999 40010 52008=
01013 26/// /1805 10012 20012 39966 49979 52019 333 60005=
01015 46/// /2304 10081 20030=
01016 46/// /1203 11010 21016 39987 40002 52009=
01017 46/// /2404 10017 20008 39974 49982 52019=
01018 46/// /2513 10045 2////=
01020 46/// /2704 10021 20009 39977 49987 52021=
01023 21587 72202 10073 20027 30028 40122 52017 71522 8687/ 333 60005=
01024 46/// /0000 10013 21009 39959 49972 52017=
01025 47671 82207 10067 20044 30099 40111 51019 781//=
01026 21480 72004 10060 20043 39972 40112 51018 78082 878// 333 69955=
01028 41468 72507 10031 20006 39994 40014 52025 72052 875//=
01033 46/// /2409 10082 20044 30065 40094 52019=
01035 46/// ///// 10034 2////=
01036 26/// /1506 10022 2//// 39267 40094 53021 333 60005=
01037 46/// /2703 10084 20022 30087 40110 53017=
01042 46/// /2416 10032 20032=
01043 46/// /2707 10074 2////=
01044 46/// /2707 10072 20052 30082 40090 53019=
01046 46/// /2804 10089 20018 30092 40098 51020=
01047 41886 22205 10051 21018 39735 40109 52021 70100 82070=
01049 26/// /2102 10076 20017 30091 40094 53023 333 60005=
01052 26/// /2511 10066 20041 39979 40077 52020 333 69955=
01055 46/// /2514 10075 20053 30046 40063 51018=
01058 26/// /1201 10015 21008 39639 40102 53021 333 60005=
01059 46/// /1902 10085 20003 30079 40088 53021=
01062 41/08 91602 10023 20015 39979 49992 53010 74542=
01064 46/// /2408 10021 21011 39389 40097 53018=
01065 26/// /0601 10006 21001 39937 40100 53021 333 60005=
01074 46/// /2205 10064 20042 30049 40064 53015=
01076 26/// /1901 10014 21010 30042 40082 52014 333 60005=
01078 46/// /2507 10065 20047 30051 40061 53014=
01082 26/// ///// 10028 20012 30024 40092 52015 333 60005=
01083 46/// /2408 10062 20020 30047 40064 52012=
01084 26/// /0000 10013 20009 333 60005=
01088 46/// /2904 10031 20002 30030 40078 53016=
01089 46/// /1504 10038 20003 39976 40082 53012=
01091 26/// /2505 10021 20003 333 69915=
01092 46/// /2506 10064 21003=
01098 26/// /2602 10051 20019 30046 40064 52014 333 60005=
01099 46/// /2604 10054 20003 30051 40067 53014=
01102 46/// ///// 1//// 2//// 30115 40134 58013=
01105 46/// /2407 10090 20056=
01107 46/// /2107 10090 20064 30116 40120 50001=
01112 46/// /1504 10092 20058 30135 40144 58011=
01114 46/// /1904 10083 20052 30128 40138 50002=
01115 21470 71813 10093 20074 30103 40124 58008 70222 81361 333 60005=
01116 46/// /1606 10095 20051 30119 40140 58006=
01121 46/// /1806 10087 20067 30128 40140 58003=
01124 26/// ///// 10095 20031 333 60005=
01132 26/// /1604 10068 20032 39773 40159 58009 333 60005=
01133 46/// /2301 10078 20057=
01135 26/// /1601 10066 20060 30001 40153 58001 333 60005=
01136 46/// /1106 10072 20049=
01139 46/// /2207 10095 20061 30120 40125 50001=
01141 26/// /1101 10079 20055 30092 40123 50006 333 69925=
01144 46/// /2408 10095 20062=
01146 26/// /0401 10069 20051 333 60005=
01147 26/// /0000 10060 20023 333 60005=
01148 46/// /0000 10065 20060=
01150 26/// /0000 10053 20041 333 60005=
01151 46/// /1301 10065 20058 30069 40155 54000=
01152 41588 7//// 10082 20053 30125 40141 50003 70282 85872=
01158 26/// ///// 10091 20006 30136 40145 50002 333 60005=
01161 46/// /2208 10080 20055 30116 40127 51009=
01162 46/// /3502 10071 20039 30119 40124 52010=
01167 41587 72403 10079 20060 30117 40123 52011 70382 86264=
01169 26/// ///// 10073 20028 30100 40145 52003 333 60005=
01180 46/// /2101 10056 20031 30068 40125 51017=
01183 46/// /2207 10072 20047 30101 40133 51020=
01192 26/// /0602 10067 20006 333 60005=
01198 26/// ///// 10019 21007 39873 40125 51019 333 60005=
01199 46/// /2405 10033 21002 39651 40115 52019=
01203 46/// /1811 10124 20002 30042 40090 58023=
01205 46/// /2008 10127 20020 30049 40094 58019=
01209 46/// /2503 10142 21044 30016 40105 58013=
01210 41787 70902 10105 20059 30078 40104 58015 70222 82578=
01212 46/// /1202 10111 20054 30084 40102 58018=
01214 46/// /1004 10108 20005=
01217 46/// /0703 10093 20057 30102 40106 58015=
01218 26/// /1605 10155 21039 30090 40111 58013 333 60005=
01220 46/// /1505 10028 21045=
01221 46/// ///// 10097 20001=
01223 46/// /0803 10108 20019 30032 40107 58014=
01224 26/// ///// 10118 20029 333 60005=
01225 46/// /1003 10109 20078 30104 40109 57016=
01227 26/// ///// 10114 21027 333 60005=
01228 46/// /1304 1//// 2//// 30107 58018=
01229 46/// /1406 10098 2////=
01230 26/// /1003 10079 20002 333 60005=
01232 26/// /1705 10128 21004 30041 40118 58014 333 69925=
01233 46/// /3102 10065 21000=
01234 46/// /2102 10072 20042=
01237 26/// /1902 10115 20017 30100 40116 58012 333 60005=
01238 46/// /0301 10043 2//// 39018 40170 58003=
01239 26/// /0801 10049 21043 333 60005=
01240 46/// /1406 10111 20054 30098 40117 58017=
01241 41881 71308 10106 20032 30109 40119 58015 70322 85077=
01242 46/// ///// 10105 20028=
01245 26/// /2004 10091 21037 39443 40136 56005 333 60005=
01250 46/// ///// 10073 21024=
01253 26/// /2401 10074 20017 333 60005=
01254 26/// /1502 10063 20063 333 60005=
01257 26/// /2002 10111 20005 39970 40128 58018 333 60005=
01259 46/// /1406 10116 20036 30101 40123 58019=
01265 26/// /1203 10052 20006 39585 40164 58016 333 60005=
01270 26/// ///// 10117 20009 333 60005=
01271 27984 81302 10124 20003 30113 40133 56020 700// 333 60005=
01272 26/// ///// 10105 20035 333 60005=
01273 46/// /1404 10112 20003 39947 40139 56017=
01277 46/// /0802 10094 20061=
01281 46/// /0302 10069 20047 39984 40158 58015=
01282 46/// /1003 10095 20049 30131 40136 58015=
01287 46/// ///// 10051 20003=
01288 46/// /1304 10057 20022 39421 40163 58010=
01290 46/// /0905 10093 20060 30135 40138 58020=
01291 26/// /1401 10075 20063 333 60005=
01293 46/// /1103 10110 20013 39939 40143 56019=
01300 41497 81815 10099 20068 40058 57032 71022 885// 22200 02088 10606 70030=
01304 46/// /1615 10118 20071 30067 40097 58026=
01307 46/// /1714 10119 20084 30090 40113 58020=
01308 26/// ///// 10121 20032 333 60005=
01310 46/// /1711 10126 20028 30094 40108 58018=
01311 47781 81808 10113 20075 30068 40129 58013 700//=
01314 26/// /0301 10091 20039 333 60005=
01315 26/// /1002 10087 20055 333 60005=
01317 21782 81506 10123 20054 30085 40128 58010 70222 8807/ 333 60005=
01319 26/// ///// 10111 20041 333 60005=
01320 46/// /0703 10085 20046 30044 40116 58013=
01321 46/// /1501 10098 20033 39865 40114 58014=
01323 46/// /2102 10103 21005 39745 40124 58007=
01326 26/// ///// 10082 20067 333 60005=
01327 26/// /0803 10099 21008 39595 40134 58009 333 60005=
01332 26/// /3201 10071 20059 333 60005=
01336 26/// ///// 10068 20045 333 60005=
01338 46/// /0902 10081 20049 30078 40144 58013=
01340 46/// /1004 10076 21008 39288 40146 58003=
01342 26/// ///// 10087 20054 333 60005=
01344 26/// ///// 10078 20014 333 60005=
01345 26/// /1607 10069 21045 333 60005=
01346 26/// /1106 10057 21068 333 60005=
01347 46/// /0802 10050 20024 39549 40145 58011=
01350 26/// /1406 10047 21056 38759 40140 58007 333 60005=
01352 46/// /1504 10033 20002=
01355 26/// ///// 10066 20041 30137 40142 58017 333 60005=
01357 46/// /0905 10051 21016 39218 40162 58009=
01358 46/// ///// 10063 20002 39443 40159 58011=
01359 46/// /1504 10083 21026 39253 40151 56011=
01361 26/// /1304 10046 21012 39121 40139 58006 333 60005=
01362 46/// /1506 10008 21112 38043 40126 58003=
01363 46/// /1302 10069 21020 39225 40156 58006=
01364 26/// /1103 10042 21033 39043 40155 58010 333 60005=
01365 26/// /1203 10045 21015 333 60005=
01366 26/// /1406 10024 21054 38541 40142 58010 333 60005=
01367 46/// /0502 10086 20015 39724 40161 57015=
01368 46/// /1702 10057 20005 39203 40165 58009=
01370 26/// /1502 10051 21009 39076 40156 58008 333 60005=
01371 26/// ///// 10075 20011 333 60005=
01373 21889 20000 10058 20010 39964 40169 56018 70200 81039 333 60005=
01374 26/// /1001 10067 20030 333 60005=
01375 46/// /1705 10023 21006=
01376 46/// /0401 10087 20022=
01378 46/// /0000 10059 20031 39883 40174 58010=
01380 46/// /1404 10034 21017=
01381 26/// ///// 10045 20037 333 60005=
01382 26/// ///// 10058 20041 333 60005=
01384 41386 81501 10066 20049 58008 70222 885//=
01385 26/// /1801 10060 20046 39913 40185 58013 333 60005=
01386 26/// ///// 10067 20040 333 60005=
01387 26/// ///// 10070 20029 333 60005=
01389 26/// /1301 10043 20028 39884 40197 56012 333 60005=
01392 46/// /0201 10055 20045 39966 40193 57006=
01397 26/// /2101 10047 20041 39750 40189 57008 333 60005=
01400 41296 81809 10123 20119 40130 55010 71065 875// 22200 06118 10402 70009=
01403 21470 71814 10116 20077 30062 40130 58013 70321 8457/ 333 60005=
01406 46/// /1712 10121 20070 30102 40122 58015=
01408 46/// /1709 10122 20071 30105 40137 58008=
01411 46/// /1611 10121 20074 30113 40140 56009=
01412 46/// /1613 10115 20090 30117 40148 58005=
01413 26/// /1705 10114 20074 333 60005=
01414 46/// /1714 10120 2////=
01415 26689 81608 10124 20075 30135 40146 58006 333 69915=
01416 26/// ///// 10125 20064 333 60005=
01417 26/// ///// 10122 20069 333 60005=
01418 26/// ///// 10119 2//// 333 60005=
01422 46/// /0201 10121 20072=
01424 26/// ///// 10099 20039 30142 40145 58007 333 60005=
01425 26/// /1803 10117 20086 30082 40162 58004 333 60005=
01426 46/// /1312 10116 2////=
01427 26/// /1107 10119 20093 30147 40164 58002 333 60005=
01429 26/// ///// 10065 21015 333 60005=
01430 26/// ///// 10116 20097 333 60005=
01431 46/// /1602 10089 20051 39505 40160 58005=
01434 46/// /1102 10081 21050 39204 40156 56012=
01435 26/70 /1404 10056 2//// 39010 40152 58006 333 60005=
01436 46/// /0907 10118 20099=
01440 46/// /1507 10045 2//// 38891 40163 54002=
01441 46/// /1802 1//// 2//// 39176 57007=
01442 26/// /1303 10099 20072 39919 40174 55004 333 60005=
01444 26/// /1802 10106 20052 333 60005=
01448 46/// /0604 10108 20092 30167 40177 53001=
01449 26/// /0601 10102 20065 333 60005=
01450 26/// /2104 10057 20007 39030 40161 56009 333 60005=
01452 46/// /0403 10097 20095 30156 40178 55000=
01453 26/// /0301 10085 20071 333 60005=
01455 26/// /1701 10109 20057 39865 40170 55012 333 60005=
01460 46/// /0302 10086 2////=
01461 46/// /2609 11001 2//// 38150 40160 56000=
01462 26/// /1203 10081 20064 333 60005=
01463 26/// ///// 10076 20059 333 60005=
01464 26/// /3501 10097 20082 333 60005=
01465 46/// /0706 10103 2//// 30160 40175 56009=
01466 46/// /0601 10079 20064 30051 40184 57009=
01467 46/// /0704 10099 20073 30171 40177 56011=
01468 46/// /0601 10068 20058=
01471 46/// /0901 10089 20016=
01473 46/// /0202 10094 20036=
01477 26/// /0701 10065 20050 333 60005=
01478 46/// /0403 10090 2////=
01480 26/// /1203 10083 20056 333 60005=
01481 26/// /0301 10087 20063 30150 40182 55009 333 60005=
01482 46/// /0404 10093 20074 30165 40174 58009=
01484 46/// /1401 10077 20068 30027 40182 58009=
01486 26/// ///// 10069 20049 333 60005=
01488 26/// /0000 10068 20049 333 60005=
01489 26/// ///// 10051 20045 333 60005=
01490 26/// /0903 10042 20038 333 60005=
01492 21488 70303 10075 20048 30064 40182 57010 70222 876// 333 60005=
01493 46/// /0502 10088 20088=
01494 27260 80102 10083 20071 30118 40183 57008 700// 333 60005=
01495 46/// /0504 10093 2//// 30164 40177 58008=
02701 46/// /2910 11002 21009 91500 555 796// 0/512=
02704 46/// ///// 10107 20084 91500 555 786//=
02705 46/// /2512 10040 20008 39535 40126 52015 91500 555 780// 0/012=
02706 46/// ///// 10113 20106 555 60109 796//=
02714 47999 02402 10034 20019 30029 40173 51015 700// 91500 555 790// 0/605=
02717 47970 02502 10019 21003 700// 91500 555 785// 0/204=
02719 46/// /2203 10032 20014 91500 555 60024 788// 0/604=
02721 47999 82306 10079 20062 30171 40180 52008 70000 80/// 91500 555 789// 0/507=
02722 46/// ///// 10025 20000 91500 555 783//=
02725 46/// /2101 10068 20054 91500 555 791//=
02726 47999 01201 10029 20000 39663 40123 52026 700// 91500 555 782// 0/605=
02727 46/// /3402 10103 20087 30095 40195 52015 91500 555 60094 790// 0/305=
02732 46/// /2804 10088 20063 30080 40183 52021 91500 555 784// 0/605=
02733 46/// /2802 10111 20101 30133 40191 52020 91500 555 793// 0/605=
02734 46/// /2801 10105 20105 30094 40187 52021 91500 555 700// 0/604=
02735 46/// /3501 10073 20055 91500 555 788// 0/504=
02736 46/// /3203 10096 20064 30057 40193 53026 91500 555 781// 0/204=
02737 46/// /1901 10063 20042 30077 40181 51010 91500 555 60053 787// 0/605=
02738 47980 82401 10055 20050 39990 40180 51011 700// 80/// 91500 555 60052 797// 86520 0/403=
02739 47999 22301 10052 20052 39975 40175 52022 700// 80/// 91500 555 700// 0/604=
02741 47299 80401 10089 20082 30187 40203 52004 70000 88/// 91500=
02743 46/// /3604 10116 20103 91500 555 792// 0/205=
02745 46/// /2001 10010 20002 39861 40130 52012 91500 555 794// 0/504=
02746 46/// /0104 10115 20102 30163 40196 52010 91500 555 792// 0/305=
02747 46/// /3403 10118 20097 30188 40194 52005 91500 555 787// 0/306=
02750 46/// ///// 10117 20104 91500 555 792//=
02751 47999 30102 10103 20074 30193 40199 52004 70000 80/// 91500 555 782// 0/605=
02752 46/// /2201 10101 20068 30172 40198 52002 91500 555 780// 0/604=
02753 47999 00000 10081 20063 30045 40199 52007 70000 91500 555 788// 0/602=
02754 46/// ///// 10112 20089 30090 40194 52009 91500=
02755 47999 72501 10062 20042 30082 40178 52011 70000 80/// 91500=
02757 47863 73502 10116 20105 30166 40195 52010 70000 87/// 91500 555 793// 0/304=
02758 46/// /3601 10115 20107 30142 40193 52012 91500 555 795// 0/504=
02759 47462 83502 10118 20102 30168 40196 52015 70000 87/// 91500 555 60108 790// 0/204=
02761 47499 70603 10100 20067 30162 40197 54001 70000 87/// 91500 555 780// 0/506=
02763 47999 7//// 10086 20068 30090 40194 52008 700// 80/// 91500 555 788//=
02765 46/// /3403 10097 20067 91500 555 781// 0/606=
02766 46/// /2902 10068 20068 39878 40165 52031 91500 555 700// 0/604=
02767 46/// ///// 10103 20089 91500 555 792//=
02769 47999 11902 10070 20055 30078 40196 52004 70000 80/// 91500=
02770 46/// ///// 10066 20049 30006 40198 51009 91500 555 789//=
02772 46/// /3205 10100 20067 30091 40189 52026 91500 555 780// 0/307=
02773 47499 80000 10119 20094 30184 40195 52005 70000 88/// 91500=
02777 47461 80000 10108 20099 30048 40197 52009 72286 88/// 91500 555 794// 80360 0/402=
02778 47461 8//// 10106 20091 30087 40183 52022 70010 88/// 91500 555 790//=
02780 46/// /2204 10094 20070 30190 40194 52007 91500 555 785// 0/004=
02781 46/// /2705 10094 20064 30190 40194 52007 91500 555 782// 0/605=
02787 469// 8//// 10069 20052 39980 40190 52010 80/// 91500 555 789//=
02788 46/// /2102 10066 20055 30072 40185 52020 91500 555 793// 0/607=
02789 47944 12201 10045 20043 39977 40182 52024 71021 80/// 91500=
02790 47199 80303 10086 20081 30169 40199 52003 70000 88/// 91500=
02791 46/// /2201 10060 20051 91500 555 794// 0/605=
02793 46/// /3006 10091 20077 30085 40182 52032 91500 555 790// 0/308=
02794 46/// /3504 10114 20105 91500 555 794// 0/406=
02795 47861 70103 10114 20105 30186 40199 52012 70000 87/// 91500 222// 00102 555 60109 794// 82470 0/606=
02796 46/// /3003 10072 20061 91500 555 793// 0/605=
02798 47999 5//// 10064 20064 70000 80/// 91500 555 700// 85660=
02799 47999 12802 10055 20040 39923 40166 52030 70000 80/// 91500 555 790// 86900 0/303=
02800 46/// /2507 10083 20058 30139 40167 52005 91500 555 784// 0/409=
02801 47582 70203 10041 20005 39535 40119 52019 78185 87/// 91500=
02803 46/// /2303 10054 20044 30106 40167 51012 91500 555 794// 0/405=
02804 47970 02202 10053 20042 700// 91500 555 60047 793// 0/203=
02805 47899 11701 10026 20006 39958 40093 52016 70000 81/// 91500=
02807 47999 02304 10035 20002 39926 40108 700// 91500=
02811 46/// ///// 10017 20013 91500 555 797//=
02813 46/// /2901 10048 20006 30010 40142 52019 91500 555 774// 0/304=
02814 47999 02404 10056 20021 39878 40134 52015 70000 91500=
02815 46/// /2302 10045 20019 91500 555 784// 0/202=
02816 47999 02501 10024 20001 39810 40119 52017 70000 91500 555 785// 0/503=
02817 46/// /2405 10021 21002 39577 40112 52018 91500 555 60011 785// 0/307=
02818 46/// /2607 10030 20009 39792 40106 52016 91500 555 60021 786// 0/007=
02820 46/// /2914 10019 21012 39210 40123 52018 91500 555 780// 0/214=
02821 47/99 /2709 10031 21006 39445 40118 52020 70000 91500 555 777// 0/210=
02823 47980 52502 10036 20001 39835 40128 52018 700// 80///=
02824 469// 73102 10036 20000 39699 40127 52019 80/// 91500 555 778// 0/305=
02825 46/// /2301 10011 21004 30055 40085 52017 91500 555 789// 0/202=
02827 46/// /2502 10030 21002 91500 555 780// 0/604=
02828 46/// ///// 10120 20116 30187 40194 52006 91500 555 798//=
02830 46/// ///// 10116 20102 91500 555 791//=
02831 46/// /3404 10123 20103 91500 555 787// 0/604=
02832 46/// ///// 10099 20070 91500 555 782//=
02833 46/// /2002 10093 20059 30150 40189 52006 91500 555 779// 0/602=
02834 47999 02602 10063 20051 39926 40180 51018 700// 91500 555 792// 0/505=
02835 47999 02204 10038 20012 39947 40099 52018 700// 91500=
02836 47999 02502 10040 20007 39907 40129 52017 70000 91500=
02844 47999 11501 10040 20009 30035 40142 52017 70000 80/// 91500=
02845 47/70 ///// 10047 20008 700// 91500=
02847 47982 02403 10060 20010 30041 40142 52019 70000 91500 555 770// 0/504=
02849 47970 02103 10045 20031 39863 40134 52013 700// 91500=
02851 47999 02402 10065 20051 30149 40163 51011 700// 91500=
02862 47999 02403 10077 20053 30152 40156 52015 70000 91500=
02863 46/// /2508 10091 20047 30135 40155 52012 91500=
02866 47999 02402 10062 20042 30009 40159 52016 70000 91500=
02868 46/// /2507 10030 20030 91500 555 700// 0/107=
02869 47999 0//// 10036 20036 39822 40147 700// 91500 555 700//=
02872 47/99 /2406 10084 20058 30168 40174 52011 70000 91500 555 784// 0/607=
02873 47999 02406 10084 20056 30154 40165 52013 70000 91500=
02874 46/// /2503 10063 20048 91500 555 790// 0/604=
02876 47/99 /2404 10079 20063 30159 40164 52013 70000 91500 555 790// 0/607=
02889 47999 02503 10048 20041 39885 40160 52020 70000 91500=
02897 47999 02403 10060 20046 39991 40172 700// 91500=
02907 46/// /2506 10089 20066 30169 40175 52008 91500=
02910 46/// /2403 10083 20066 30182 40189 52008 91500=
02913 47999 62501 10075 20051 30136 40185 51007 700// 80///=
02915 47999 22102 10072 20059 30026 40187 52016 70000 80/// 91500=
02917 47999 02503 10074 20052 30064 40186 700// 91500=
02920 46/// /2305 10083 20057 30160 40182 52008 91500=
02924 47999 20000 10055 20049 30000 40197 52012 70000 80/// 91500=
02926 47599 61502 10100 20069 30185 40198 53004 700// 81/// 91500=
02929 47599 62903 10077 20062 30033 40182 700// 81/// 91500 555 790// 80792 0/306=
02935 47999 02201 10066 20065 30022 40196 52015 70000 91500=
02937 47582 82501 10106 20069 30150 40197 51006 700// 88/// 91500 555 60086 778// 0/603=
02939 47599 72403 10088 20068 39980 40171 52031 70000 87/// 91500=
02942 42982 50000 10089 20075 30049 40197 52007 70222 83031 555 60082 790//=
02943 46/// /0103 10099 20065 30075 40195 51009 91500 555 780//=
02944 47499 70000 10098 20063 30049 40194 700// 87/// 91500=
02945 47/99 /0000 10071 20057 30020 40199 700// 555 791// 0//04=
02947 47599 73302 10098 20078 30071 40193 53020 700// 87/// 91500=
02948 47699 42902 10091 20064 30069 40185 700// 84/// 91500 555 783// 81036 0/103=
02950 46/// /3502 10115 20115 30190 40196 52005 91500 555 700// 0/305=
02955 47999 1//// 10074 20059 30078 40182 52020 70000 80/// 91500=
02957 47999 72102 10089 20064 30180 40191 53008 700// 80/// 91500=
02958 47559 82901 10108 20097 30060 40189 700// 88/// 91500=
02959 47360 82901 10108 20096 30063 40190 52019 700// 88/// 91500 555 792// 0/603=
02963 47499 83301 10106 20090 30069 40196 52008 70000 88///=
02964 464// 70503 10097 20084 30192 40199 54000 87/// 91500=
02965 47460 70000 10108 20097 30098 40194 52013 70010 87/// 91500=
02966 47560 63202 10105 20093 30068 40189 700// 83/// 91500 555 60098 792// 0/604=
02967 47459 82904 10120 20110 30188 40192 53017 710// 88/// 91500=
02974 42367 80102 10118 20103 30132 40197 52013 70122 885//=
02976 47460 83303 10122 20107 30180 40196 53016 700// 88/// 91500=
02978 47461 73403 10125 20105 30191 40196 52014 70000 87/// 91500=
02979 46/// /0406 10090 20090 30177 40196 52004 91500=
02980 47299 70703 10093 20086 30186 40199 52004 70000 87/// 91500=
02981 47899 7//// 10106 20097 30186 40196 52005 700// 87/// 91500=
02982 46/// /0104 10110 20099 30187 40198 52010 91500=
02983 47560 7//// 10107 20099 30063 40201 52011 76186 82/// 91500 555 795//=
02984 47857 80204 10106 20098 30182 40195 52013 71010 88/// 91500=
02987 46/// ///// 10116 20114 30167 40195 52013 91500=
02991 46/// /3403 10118 20109 30162 40195 52013 91500=
02992 47/63 83205 10120 20107 30191 40196 53014 700// 91500=
02993 46/// /0303 10084 20084 30182 40201 54000 91500=
03002 45363 /1823 10114 20101 39998 40016 56023 333 83/09 86/46 90710 91135=
03005 41359 71926 10107 20095 39918 40017 56023 72162 876// 333 55300 20169 87708 87646 90710 91138=
03008 45461 /1825 10113 20096 39948 40020 57016 333 81/11 90710 91135 555 7/093=
03010 46/// /2028 10130 20093 49992 58002 333 90710 91137=
03017 45673 /1819 10125 20087 39987 40018 56010 333 55300 20388 86/35 85/56 85/71 90710 91128 555 7/098=
03023 47661 /2124 10122 20102 30005 40010 52014 704// 333 87/48 90710 91139=
03026 47456 /2223 10119 20111 39980 49998 53012 782// 333 55301 20306 84/12 83/48 90710 91144 555 7/098=
03031 45580 /2419 10116 20074 39712 40030 51010 333 55300 20268 85/23 85/32 90710 91139 91035 555 7/098=
03034 47667 /1925 10127 20099 30006 40019 51008 723// 333 84/41 90710 91137 555 7/095=
03039 46/// /2040 10068 20068 333 90710 91156 91051=
03044 45682 /1813 10140 20077 39910 40006 51003 333 55302 20488 83/42 555 7/093=
03047 47683 /2308 10113 20085 39766 40062 51006 723// 333 553// 20500 85/41 83/71 555 7/097=
03062 45584 /2117 10146 20093 30019 40024 56002 333 553// 20830 81/26 90710 91127 555 7/091=
03063 45486 /2110 10123 20084 39768 40037 52004 333 55300 20244 87/19 83/28 91020 555 7/098=
03065 46/// /2144 10045 20045 333 90710 91162 91061=
03066 45688 /2111 10147 20090 30029 40035 52003 333 55300 20165 87/31 83/39 555 7/098=
03068 42582 72120 10146 20087 30023 40032 57003 85831 333 81825 85635 90710 91129=
03072 46/// /2038 10059 20059 333 90710 91148 91048=
03080 45983 /2011 10138 20080 39884 40049 56005 333 84/70 90710 91129 91023 555 7/094=
03088 45568 /2018 10119 20104 39904 40064 56010 333 553// 20535 85/29 555 7/096=
03091 45983 /1912 10135 20096 39979 40057 56007 333 55300 20352 88/68 555 7/098=
03100 47657 /2119 10134 20106 30025 40040 51009 704// 333 55300 20545 87/35 90710 91128 555 7/098=
03105 45673 /1713 10141 20114 30050 40067 53004 333 82/41 87/69 555 7/098=
03111 46781 /1810 10138 20109 30062 40074 52003 333 81/50 87/71 555 7/098=
03132 45463 /1914 10133 20120 30079 40092 57002 333 82/10 87/20 555 7/098=
03134 47259 /2110 10116 20111 30008 40079 52003 722// 333 55300 20087 88/05 91020 555 7/098=
03136 45484 /1914 10128 20110 30050 40083 58001 333 55300 20217 88/15 555 7/098=
03144 47462 /2407 10121 20112 30029 40071 58003 751// 333 553// 20246 87/12 84/19 555 7/098=
03148 46/// /2014 10081 20081 333 90710 91133=
03153 47005 /2019 10117 20116 39959 40095 58002 762// 333 55300 20105 87/01 90710 91125 555 77457=
03155 46429 /2017 10109 20097 39792 40085 55001 333 87/15 90710 91127 555 7/097=
03158 45584 /2219 10132 20086 39950 40084 55007 333 55300 20472 84/27 90710 91133 91029 555 7/095=
03162 41230 82016 10110 20104 39816 40099 57002 75886 885// 333 55300 20273 81705 86707 88614 90710 91126=
03166 45581 /2214 10137 20102 30007 40075 55002 333 55300 20621 81/24 85/50 90710 91130 91024 555 7/097=
03171 45584 /2516 10147 20093 30058 40070 56007 333 55300 20392 87/27 84/50 90710 91128 555 7/098=
03204 41365 82018 10132 20119 30087 40106 57002 76165 885// 333 55300 20160 81706 87612 88620 90710 91127=
03210 46250 /2118 10118 20112 39964 40113 54000 333 84/04 87/08 90710 91127 555 7/098=
03212 45580 /1503 10140 20093 30013 40110 58001 333 87/22 83/57 555 7/098=
03214 45680 /2010 10142 20109 30100 40118 57004 333 86/32 85/57 555 7/098=
03220 46684 ///// 10140 20098 30070 40103 57001 333 86/38 86/50 555 7/098=
03224 45682 /2415 10128 20072 39760 40097 57004 333 86/47 90710 91125 555 7/096=
03225 46484 /2117 10127 20101 39813 40113 55003 333 55303 21023 81/16 85/20 86/62 90710 91130 91027 555 7/098=
03226 47484 /2313 10128 20109 39844 40115 5/002 720// 333 83/13 83/19 85/62 555 7/088=
03227 46/// /2440 10076 20074 333 90710 91152=
03230 46956 /2310 10133 20083 39845 40095 56006 333 88/72 555 7/098=
03238 45982 /2403 10141 20090 39929 40098 57005 333 8//99 555 7/090=
03240 45980 /2014 10152 20101 30068 40095 56007 333 55300 20452 87/62 555 7/097=
03257 45982 /2011 10155 20120 30080 40120 58002 333 55300 20511 87/64=
03265 45581 /2012 10156 20127 30093 40123 57004 333 83/22 87/32 555 7/097=
03266 42470 71909 10164 20122 30107 40123 57005 878// 333 83817 87632=
03275 45671 /2013 10148 20122 39929 40116 57004 333 83/30 85/35 555 7/096=
03281 46/// /2114 10131 20123=
03292 464// /2013 10153 20133 30110 40128 56007 333 83/13 87/68 555 7/097=
03301 46579 /2018 10134 20105 30052 40124 54000 333 86/28 84/38 90710 91127 555 7/098=
03302 42470 81922 10137 20113 30107 40121 57002 888// 333 55300 20238 81815 88627 90710 91129=
03305 45484 /2419 10124 20100 39870 40128 51002 333 85/14 86/23 90710 91130 555 7/098=
03313 46984 /1904 10145 20094 30037 40129 54000 333 83/73 555 7/093=
03316 45984 /2112 10155 20117 30116 40126 54000 333 83/74 555 7/093=
03318 46/// /2012 10147 20115=
03321 45582 /2008 10160 20109 30119 40131 54000 333 55306 20875 85/25=
03330 47350 /2108 10129 20122 39784 40138 58001 710// 333 82/07 87/18 555 7/098=
03344 45465 /2208 10138 20122 39814 40125 58002 333 86/10 83/23 555 7/098=
03346 46/// /2210 10136 20115=
03351 45465 /2006 10156 20127 30090 40132 57001 333 55300 20497 84/16 86/36 555 7/098=
03354 45463 /1906 10152 20133 30002 40142 58002 333 55300 20367 85/10 86/37 555 7/098=
03373 46468 /2108 10155 20134 30070 40138 56003 333 85/11 86/41 555 7/098=
03377 42460 72010 10153 20136 30060 40143 55002 875// 333 55300 20343 86710 87633=
03379 41358 82011 10151 20137 30072 40147 53001 75052 886// 333 86707 88711=
03382 45470 /2010 10162 20131 30121 40130 56007 333 55300 20634 81/16 555 7/093=
03385 46367 /1809 10158 20137 30131 40141 56004 333 84/09 87/30 555 7/098=
03391 41358 71909 10152 20140 30139 40146 56002 70522 875// 333 81707 87630=
03392 46556 /2508 10154 20142 30145 40148 55000 333 87/20 555 7/097=
03405 46577 /2022 10128 20107 30020 40134 57003 333 55300 20362 87/20 90710 91129 555 7/097=
03409 46/// /2312 10141 20083 39935 40131 50000 333 55306 2////=
03410 46484 /2210 10121 20098 39706 40133 51001 333 55303 20941 85/16 83/72 555 7/097=
03414 42575 72209 10155 20123 30050 40136 54000 878// 333 55300 20260 81822 87628=
03462 47450 /2010 10149 20135 30058 40146 56001 704// 333 55300 20223 84/14 83/27 85/33 555 7/098=
03469 47658 /2509 10160 20146 30148 40151 53001 704// 333 553// 20407 87/32 555 7/097=
03482 42465 62011 10192 20142 30123 40148 55004 84432 333 81710 84625=
03488 47979 /2010 10198 20146 30122 40146 56004 723// 333 55309 2//// 8//99 555 7/090=
03502 45983 /1917 10139 20096 39976 40136 58002 333 55308 21159 87/58 555 7/097=
03503 45984 /1907 10155 20105 30064 40139 57002 333 81/73 555 7/091=
03507 47258 /2210 10116 20113 39781 40148 51003 757// 333 87/04 83/11 85/15 555 7/098=
03520 46581 /2510 10145 20124 30026 40144 52001 333 55300 20237 87/24 555 7/097=
03522 45675 /1002 10161 20135 30056 40147 54000 333 88/35 555 7/098=
03529 45562 /1907 10157 20134 30107 40149 50000 333 86/29 83/35 555 7/098=
03535 45569 /1907 10156 20134 30028 40142 57001 333 553// 20298 87/25 555 7/097=
03544 47357 /1903 10148 20140 30019 40147 57002 710// 333 553// 20124 83/08 87/15 555 7/098=
03560 47458 /2507 10164 20142 30051 40152 55000 704// 333 553// 20401 82/18 85/45 555 7/097=
03590 42580 32012 10203 20138 30046 40152 56001 81131 333 553// 21108 81825 83075=
03604 46482 /2014 10141 20108 30090 40143 58001 333 81/14 86/31 555 7/097=
03605 46575 /2217 10149 20108 30143 40151 52002 333 86/20 555 7/096=
03609 46/// /2314 10149 20111 30104 40156 51002=
03647 46248 /2208 10143 20142 39897 40147 56001 333 553// 20258 84/04 87/12 555 7/098=
03649 41358 82103 10162 20149 30053 40150 57003 70552 886// 333 55300 2//// 82709 86713 88645=
03658 42462 71908 10172 20147 30084 40152 56003 878// 333 82813 87645=
03660 47357 /2205 10153 20142 39914 40156 53001 751// 333 87/09 85/17 555 7/098=
03672 42572 72111 10177 20135 30118 40157 51004 83801 333 81820 83630 86075=
03684 45683 /2112 10194 20132 30048 40150 54000 333 83/31 555 7/093=
03693 45980 /2113 10193 20130 30156 40158 57001 333 55310 2//// 8//99 555 7/090=
03707 45483 /2209 10150 20115 30149 40157 50002 333 81/17 555 7/091=
03710 46156 /2306 10109 20109 39743 40159 51004 333 55300 20185 87/02 555 7/097=
03716 45484 /2409 10141 20111 30094 40153 51006 333 55300 20284 87/14 86/30 555 7/098=
03740 463// /2205 10151 20139 39980 40153 5//// 333 55300 20405 81/07 86/23 555 7/098=
03743 41475 72308 10156 20129 39999 40156 55000 70352 878// 333 81814 87639=
03746 42475 72311 10156 20128 30008 40157 55000 878// 333 81710 83815 87630=
03749 41465 72306 10160 20142 30049 40157 53001 72162 875// 333 82712 83625 87642=
03761 41462 71907 10165 20144 30016 40156 51001 72052 875// 333 55300 20298 82712 87640=
03768 46464 /1806 10164 20144 30081 40158 51004 333 81/13 85/25 86/33 555 7/098=
03769 45480 /2006 10165 20132 30081 40161 51005 333 55300 20583 88/16 555 7/098=
03770 46/// ///// 10183 20128=
03772 45479 /2110 10177 20137 30128 40158 51005 333 55303 20654 81/18 87/25 555 7/097=
03781 45483 /2109 10157 20133 39960 40163 52005 333 553// 20626 87/12 555 7/097=
03796 46/// /2107 10178 20147 30031 40169 55001=
03797 45981 /1913 10198 20130 30107 40165 55002 333 55310 21138 8//99 555 7/090=
03803 45581 /2012 10146 20121 30119 40156 56002 333 87/25=
03808 42482 62310 10146 20100 30056 40160 53002 82101 333 55310 21444 82816 86075=
03809 42475 42310 10148 20110 30071 40162 53001 83802 333 81714 83072=
03823 45481 /2109 10141 20111 39919 40158 51002 333 553// 21157 86/14 555 7/096=
03827 47374 /2311 10129 20117 30106 40167 52004 723// 333 85/09 85/23 555 7/098=
03840 47357 /2207 10123 20112 39859 40161 52004 704// 333 88/09 555 7/098=
03853 42565 62112 10151 20110 30135 40159 53004 85502 333 55300 20442 83620 85635 86070=
03857 45678 /2613 10156 20121 30102 40164 53002 333 81/41 555 7/091=
03862 45671 /2407 10157 20130 30150 40162 53005 333 55300 20272 87/38 555 7/097=
03866 46/// /2811 10157 20133 30138 40161 52002=
03872 45473 /2709 10169 20146 30156 40160 50000 333 553// 20792 82/15 555 7/093=
03876 46/// /1910 10165 20143 30162 40165 50001=
03882 45462 /2407 10161 20136 30108 40170 53005 333 55301 20445 87/11 555 7/097=
03894 41483 72509 10148 20115 40177 52003 70262 878// 333 82814 86630=
03895 47250 /2706 10138 20135 30075 40178 52006 752// 333 55300 20190 87/04 87/13 555 7/098=
03901 45672 /2308 10162 20098 39987 40072 53005 333 55310 21211 81/34 555 7/091=
03904 45979 /2213 10154 20089 30008 40066 53002 333 85/69 555 7/095=
03907 45680 /2216 10151 20102 30059 40066 53005 333 55309 21132 81/46 555 7/092=
03911 45467 /2307 10130 20101 39810 40077 53003 333 84/17 85/26 555 7/097=
03915 45667 /2009 10141 20105 39996 40072 52001 333 81/32 84/44 555 7/095=
03916 45483 /2413 10138 20104 39889 40075 52005 333 553// 21025 82/15 555 7/092=
03917 45675 /2011 10142 20109 30006 40081 52003 333 55302 20714 83/42 555 7/093=
03923 47377 /2309 10130 20108 39890 40082 52002 723// 333 81/07 555 7/093=
03951 46/// /2406 10147 20119 30096 40122 52005=
03952 45570 /2607 10162 20092 30066 40115 53004 81/// 333 81/32=
03953 45463 /2307 10151 20109 30083 40113 50004 87/// 333 81/18 82/22 87/39=
03955 41583 12405 10149 20092 39922 40114 53004 70381 81800 333 81820=
03956 47115 /2107 10133 20129 30039 40115 58005 71065 88/// 333 88/02=
03961 47180 /2004 10144 20137 30030 40105 58003 72285 87/// 333 81/03 83/10 85/37=
03962 42582 12507 10151 20090 30079 40102 50003 81802 333 81824=
03966 45/65 /2305 10152 20086 30011 40102 53006=
03967 41480 62208 10148 20128 39986 40097 50002 70162 865// 333 84717 86625=
03969 41481 72205 10149 20118 39998 40099 50002 71522 876// 333 81712 84715 86620=
03970 46/// /2206 10139 20101 30002 40085 52007=
03971 47666 /2503 10150 20084 39975 40094 52006 7028/ 83/// 333 81/35 83/42=
03973 42575 52205 10138 20089 39833 40081 51007 85500 333 83627 83648=
03976 47560 /2212 10139 20108 30052 40063 52006 7011/ 87/// 333 87/20=
03978 47661 /2605 10149 20091 30031 40072 52006 7031/ 87/// 333 83/35 87/50=
03979 45565 /2305 10152 20086 39990 40084 53005 83/// 333 81/33 83/47=
03980 45667 /2207 10153 20101 30036 40060 52008 87/// 333 87/38=
04013 41265 83307 10056 20045 49752 56003 76162 82620 555 3//11=
04018 41474 83015 10063 20044 49762 52019 75066 8762/ 555 3//18 82710 84716 87623=
04030 41365 83008 10058 20044 49756 52020 76166 8272/ 555 3//10 82709 84517 88524=
04063 42682 82602 10060 20041 49751 57025 8672/ 555 3//05=
04073 42484 80913 10060 20036 49740 57025 8547/ 555 3//18=
04097 41410 81914 10074 20068 49796 53021 76366 8572/ 555 3/422=
04416 46/// /1206 11407 21420 36568 52004=
06011 27564 31107 10114 20070 39804 49870 57026 72380 333 55303 20436 69987 81/25 83/34 91119=
06019 26/// /1904 10125 20109 333 55300 20194 6///7=
06030 25/75 /1201 10145 20118 30159 40174 54000 333 6///7=
06031 26/// /1602 10132 20108 333 55300 20223 6///7=
06041 25264 71305 10125 20124 30166 40172 57004 333 55300 20176 6///7 81/06 83/23 87/50=
06049 464// 80103 10134 20122 30068 40175 52002 333 88/12=
06052 27456 72206 10127 20106 30171 40176 52002 71010 333 6///7 85/11 87/14=
06058 27250 82005 10116 20106 30174 40179 52004 71011 333 55300 20238 6///7 88/04=
06060 25461 82604 10146 20122 30113 40176 52004 333 6///7 88/13=
06069 46/// ///// 30105 52003=
06070 27/56 /1803 10150 20134 30150 40179 52001 71000 333 6///7=
06074 27457 82504 10145 20127 30111 40178 52004 71011 333 6///7 88/12=
06079 27111 72602 10121 20121 30169 40174 54000 71010 333 55300 20245 6///7 87/02=
06081 46/// /1804 10132 20119 30160 40182 52007=
06096 47958 12405 10151 20125 30170 40181 52007 71010 333 55308 20702 81/67=
06108 46/// /2308 10157 20125 30129 40183 52007=
06119 27/57 02805 10166 20139 30160 40183 52004 71011 333 6///7=
06120 21456 82506 10162 20148 30155 40180 50005 71022 887// 333 6///7 88614=
06123 47/42 /0000 10151 20137 30179 40183 52003 71011 333 55300 20230=
06124 47/49 /2603 10168 20139 30173 40182 52004 71011=
06136 26/// /1805 10167 20133 333 55310 20590 6///7=
06138 46/// /2006 10158 20142 30179 40184 52004=
06141 27/56 02003 10163 20141 30172 40183 52004 71010 333 55300 20194 6///7=
06147 27/56 /1704 10139 20127 30180 40186 52003 71010 333 6///7=
06149 26/// /2004 10140 20124 30179 40185 52001 333 55301 20310 6///7=
06151 46/// /2007 10165 20133 30179 40182 52005=
06156 25/60 02303 10189 20146 30161 40177 52004 333 55309 20554 6///7=
06159 27/32 /2104 10143 20134 30161 40180 52006 71011 333 6///7=
06168 46/// /1801 10173 20130 30127 40178 52003=
06169 27/50 /2406 10138 20130 30159 40178 52006 71010 333 6///7=
06174 27/58 /2104 10191 20144 30152 40178 52002 71010 333 55310 20652 6///7=
06180 25/76 01803 10149 20117 30177 40183 52001 333 6///7=
06181 46/// /1603 10184 20122 30129 40179 52002=
06183 47/63 /1809 10132 20118 30164 40181 54000 70010=
06193 25/69 01304 10150 20110 30178 40189 52001 333 55306 20479 6///7=
06201 47273 82306 10139 20128 30108 40150 50001 702// 88/// 333 543// 82/05 88/07 90730 91008 91110=
06203 47969 11706 10177 20134 30141 40169 56001 702// 80/// 333 543// 81/78 90730 91007 91113=
06204 47970 42008 10177 20144 30139 40171 53004 703// 80/// 333 543// 84/75 90730 91009 91110=
06205 47032 82206 10134 20134 30088 40146 58009 72030 8//// 333 82/00 84/01 85/03 91008 91108 91207 555 51108 51207=
06206 47056 02006 10155 20147 30125 40158 58001 71011 80000 333 543// 90730 91008 91111=
06207 47067 02109 10171 20138 30137 40173 55001 702// 80000 333 543// 90730 91010 91110=
06208 47070 02203 10209 20123 30146 40176 55001 701// 80000 333 543// 90730 91003 91106=
06211 47250 82105 10149 20141 30103 40158 51002 710// 8//// 333 88/04 91007 91109 91207 555 51108 51205=
06212 47973 11608 10177 20136 30121 40169 56001 701// 80/// 333 543// 81/70 90730 91008 91109=
06225 46/// /1903 333 91005 91106 91205 555 51105 51204=
06229 46/// /2004 333 91005 91108 91207 555 51107 51206=
06235 17081 02104 10200 20106 30173 40173 55000 60005 702// 80000 333 543// 55/// 20925 553// 20853 90730 91006 91109=
06239 47256 82107 10153 20144 30124 40153 56004 71083 88/// 333 543// 81/04 83/06 86/10 90730 91008 91110=
06240 17980 21703 10222 20127 30179 40175 57003 60005 701// 80/// 333 543// 55/// 20856 553// 20835 82/81 90730 91004 91105=
06242 45081 52208 10196 20123 30167 40170 55002 8//// 333 84/00 85/73 91009 91110 91209 555 51109 51208=
06248 46/// /1704 333 91004 91105 91204 555 51105 51204=
06249 45/81 /2403 10218 20112 333 91004 91106 91204 555 51105 51204 53087=
06251 17/58 /1903 10180 20154 30171 40174 55001 60005 7101/ 333 543// 55/// 20907 553// 20813 90730 91004 91107=
06252 46/// /2007 10173 20146 30126 40162 53001 333 543// 90730 91008 91109=
06257 46/// ///// 10210 20085 555 53088=
06258 46/// /1803 48/// 333 543// 90730 91004 91107=
06260 17978 81502 10227 20128 30174 40178 56003 60005 702// 80/// 333 543// 55/// 20921 553// 20810 88/70 90730 91003 91104=
06267 45965 21903 10199 20139 8//// 333 82/80 91004 91107 91205 555 51105 51204 53078=
06269 17972 81602 10229 20130 30182 40177 57002 60005 703// 80/// 333 543// 55/// 20857 553// 20836 87/70 88/80 90730 91004 91106=
06270 17971 82003 10214 20133 30176 40177 53001 60005 703// 80/// 333 543// 55/// 20879 553// 20815 88/80 90730 91004 91107=
06273 45/80 /2102 10223 20132 333 91003 91106 91204 555 51105 51203 53074=
06275 45980 81803 10228 20113 30126 40180 58004 8//// 333 88/67 91003 91106 91204 555 51105 51203 53071=
06277 46/// /1903 10218 20150 333 91004 91107 91205 555 51105 51204 53059=
06278 46/// /1901 10238 20123 333 91003 91106 91204 555 51104 51202 53083=
06279 45980 82103 10227 20126 30160 40179 58003 8//// 333 88/66 91004 91106 91204 555 51106 51204 53090=
06280 17980 82103 10228 20122 30172 40177 56003 60005 702// 80/// 333 543// 55/// 20867 553// 20760 88/66 90730 91004 91108=
06283 46/// /1902 10247 20100 333 91003 91104 91202 555 51104 51202 53093=
06290 17981 82202 10229 20106 30141 40182 57003 60005 702// 80/// 333 543// 55/// 21030 553// 20644 88/67 90730 91003 91104=
06310 17949 41305 10207 20126 30159 40171 58007 60005 704// 80/// 333 543// 55/// 20995 553// 20944 84/81 90730 91006 91106=
06319 45/81 /1502 10238 20101 30173 40175 58004 333 91003 91104 91202 555 51104 51202 53092=
06320 45/78 /1703 10212 20090 30146 40172 56004 333 91003 91105 91204 555 51104 51204=
06321 45/67 /1705 10189 20123 30149 40172 56004 333 91005 91106 91205 555 51106 51205=
06323 46/// /1403 10236 20100 30171 40173 58006 333 91003 91104 91203 555 51104 51203 53092=
06330 46/// /1803 10228 20118 30160 40174 57006 333 91004 91105 91203 555 51104 51203 53090=
06340 45982 80902 10239 20101 30155 40173 58007 8//// 333 88/81 91004 91104 91203 555 51104 51203=
06343 46/// /1902 333 91004 91104 91203 555 51104 51203=
06344 17980 81702 10229 20121 30180 40175 58004 60005 703// 80/// 333 543// 553// 20900 88/81 90730 91003 91106=
06348 45/81 /2001 10235 20132 30178 40177 58004 333 91001 91104 91203 555 51102 51202 53080=
06350 45980 81703 10244 20099 30161 40175 58005 8//// 333 88/68 91004 91104 91203 555 51104 51203 53078=
06356 46/// /1202 10230 20135 30176 40177 57004 333 91003 91104 91202 555 51103 51202 53078=
06370 17980 81402 10243 20091 30153 40179 56003 60005 702// 80/// 333 543// 55/// 20980 553// 20767 88/68 90730 91004 91105=
06375 45981 81402 10239 20095 30156 40180 57004 8//// 333 88/68 91003 91105 91203 555 51104 51202 53068=
06377 45961 80902 10232 20116 8//// 333 88/67 91003 91103 91202 555 51103 51202 53063=
06380 17980 80702 10239 20106 30044 40178 56005 60005 702// 80/// 333 543// 55/// 20965 553// 20661 88/67 90730 91003 91106=
06391 46/// /1702 10239 20113 333 91002 91104 91202 555 51103 51202 53077=
06400 45/69 /1904 10235 20108 30163 40171 57005 333 91107 91205=
06407 42975 21705 10231 20094 30171 40177 57004 80001 333 82075 91108 91206=
06414 46/// /1703 10242 20099 30144 40174 56006 333 91106 91203=
06418 46/// /1505 10224 20100 30156 40172 56008 333 91107 91206=
06428 45/70 /9901 10235 20107 30133 40175 58006 333 91104 91203=
06431 46/// /1302 10243 20120 30168 40180 58004 333 91105 91203=
06432 45/70 /1702 10240 20101 30108 40177 57005 333 91104 91202=
06438 46/// /1302 10243 20110 30171 40177 58007 333 91104 91203=
06439 46/// /1402 10244 20095 30166 40178 56007 333 91104 91203=
06447 46/// /1603 10248 20068 30052 40170 56004 333 91106 91204=
06449 42970 42203 10236 20092 39960 40176 52002 80001 333 84070 91106 91204=
06450 42982 31102 10238 20116 30161 40176 57007 81031 333 81363 83075 91103 91202=
06451 42970 41202 10236 20106 30115 40179 56004 80001 333 84073 91105 91203=
06455 46/// /1803 10240 20077 39897 40168 55002 333 91107 91204=
06456 42972 41802 10236 20079 39848 40173 57002 80001 333 84070 91105 91204=
06458 42970 29901 10238 20093 30047 40177 57003 80001 333 82070 91104 91203=
06459 46/// /1703 10238 20089 39992 40178 56004 333 91107 91204=
06464 46/// /1402 10247 20082 30153 40180 58005 333 91105 91203=
06465 45970 /9901 10250 20088 30117 40177 56004 333 87/71 91104 91203=
06472 46/// /1504 10219 20046 39843 40185 56002 333 91106 91204=
06476 45982 01403 10197 20079 39546 40180 55001 333 81/67 91109 91205=
06477 46/// /1102 10242 20117 40181 333 91104 91203=
06478 42975 51503 10236 20084 39968 40176 57004 83032 333 83366 85070 91105 91203=
06479 42970 59901 10231 20105 30112 40182 57003 80001 333 85071 91103 91202=
06484 46/// /1503 10226 20080 39807 40180 57001 333 91106 91204=
06490 45982 01302 10214 20066 39636 40179 54002 333 91105 91203=
06494 46/// /1303 10206 20057 39411 40172 58002 333 91105 91203=
06496 45970 /9901 10210 20057 39538 40177 57001 333 86/65 87/68 91104 91202=
06590 42979 51402 10212 20097 39750 40181 56001 80002 333 85070 91104 91203=
06610 16/// /0202 10201 20045 39607 40166 57/// 60005 333 54/05 55300 21019 90730 91107=
07002 22960 22705 10192 20122 30091 40171 55003 82010 333 60007 82458 90710 91111 92427 555 60005=
07003 24983 /2202 10225 20124 30146 40169 58006 700// 333 4//// 60007 90710 91105 555 60005=
07005 24/69 /1805 10234 20108 30084 40167 56006 700// 333 4/000 60007 90710 91110 555 60005=
07010 22960 43405 10186 20137 30151 40170 56004 84060 333 60007 84363 90710 91109 92427 555 60005=
07015 24978 /1606 10239 20106 30118 40173 56005 700// 333 4//// 60007 90710 91112 555 60005=
07020 22564 82410 10156 20127 30166 40176 52005 887// 333 60007 88726 90710 91114 555 60005=
07024 24250 82807 10140 20130 30013 40176 52006 760// 333 4/000 69967 90710 91111 555 69965=
07027 24683 72006 10187 20129 30098 40177 53002 700// 333 4/000 60007 90710 91113 555 60005=
07028 22675 32405 10187 20124 30053 40175 53002 83100 333 60007 83833 90710 91111 92428 555 60005=
07031 24982 /2007 10193 20128 30010 40177 55000 700// 333 4/000 60007 90710 91117 555 60005=
07037 24981 /2008 10222 20119 39994 40170 56005 700// 333 4/000 60007 90710 91115 555 60005=
07038 24986 /2010 10223 20117 30013 40173 56003 700// 333 4//// 60007 90710 91115 555 60005=
07040 22960 32808 10184 20143 30125 40172 55000 8308/ 333 60007 83366 90710 91111 92427 555 60005=
07046 24975 /2406 10183 20127 30069 40176 53001 700// 333 4/000 60007 90710 91112 555 60005=
07055 24950 /2105 10241 20111 30043 40171 56003 700// 333 4/000 60007 90710 91111 555 60005=
07057 24/70 /2204 10244 20092 30070 40172 55002 700// 333 4//// 60007 90710 91107 555 60005=
07059 24981 /1304 10229 20116 30042 40172 57004 700// 333 4//// 60007 90710 91109 555 60005=
07061 24/69 /1701 10238 20111 30060 40173 58003 700// 333 4/000 60007 90710 91106 555 60005=
07072 24969 /1103 10238 20090 30065 40175 56004 700// 333 4/000 60007 90710 91106 555 60005=
07075 24970 /1504 10236 20096 30006 40177 56003 700// 333 4//// 60007 90710 91111 555 60005=
07093 24981 /0808 10237 20085 39879 40174 57003 700// 333 4/000 60007 90710 91114 555 60005=
07100 26/// /2011 10161 20115 30096 40177 53003 333 4//// 60007 90710 91115 555 60005=
07103 26/// /2005 1//// 2//// 3//// 4//// 333 4//// 6///7 90710 91108 555 6///5=
07107 22575 72608 1//// 2//// 3//// 4//// 875// 333 6///7 90710 91115 92428 555 6///5=
07110 24586 82211 10148 20089 30066 40183 53004 700// 333 4/000 60007 90710 91115 555 60005=
07117 22475 62706 10158 20114 30109 40178 53002 83521 333 60007 90710 91111 92428 555 60005=
07118 24584 /2906 10156 20110 30075 40179 53001 700// 333 4/000 60007 90710 91110 555 60005=
07125 24446 82101 10152 20139 30105 40183 53006 760// 333 4/000 69907 90710 91106 555 69905=
07130 24581 82407 10185 20125 30138 40182 53003 700// 333 4/000 60007 90710 91113 555 60005=
07134 24570 61703 10184 20133 30064 40182 56001 700// 333 4/000 60007 90710 91107 555 60005=
07139 24570 /2107 10196 20121 30009 40178 55000 700// 333 4/000 60007 90710 91112 555 60005=
07140 24958 /2306 10226 20119 30031 40178 53001 700// 333 4//// 60007 90710 91114 555 60005=
07143 24969 /2306 10230 20123 39994 40173 55000 700// 333 4/000 60007 90710 91115 555 60005=
07145 24970 /2405 10232 20106 39973 40174 55000 700// 333 4//// 60007 90710 91110 555 60005=
07146 24962 /2005 10244 20110 39987 40172 55001 700// 333 4/000 60007 90710 91110 555 60005=
07149 22970 62107 10246 20093 30070 40174 55002 80001 333 60007 86076 90710 91115 93100 555 60005=
07150 24981 /1603 10250 20089 30116 40173 55003 700// 333 4/000 60007 90710 91111 555 60005=
07153 24970 /2105 10243 20079 30066 40172 56003 700// 333 4/000 60007 90710 91109 555 60005=
07156 24/70 /2404 10235 20095 30082 40172 56003 700// 333 4/000 60007 90710 91111 555 60005=
07157 22975 72303 10251 20086 30043 40172 56003 80001 333 60007 87076 90710 91109 93100 555 60005=
07166 24969 /0000 10242 20082 39983 40175 56003 700// 333 4/000 60007 90710 91105 555 60005=
07168 24970 /3404 10241 20100 30040 40176 57003 700// 333 4/000 60007 90710 91109 555 60005=
07169 24983 /0000 10248 20083 30014 40173 58003 700// 333 4//// 60007 90710 91106 555 60005=
07180 24982 /0606 10240 20084 39928 40172 57005 700// 333 4/000 60007 90710 91112 555 60005=
07181 21/// /0503 10229 20078 39780 40171 57002 700// 333 60007 90710 91110 93100 555 60005=
07190 24964 /2602 10200 20107 30003 40179 56004 700// 333 4/000 60007 90710 91103 555 60005=
07200 22575 52008 1//// 2//// 3//// 4//// 84802 333 6///7 90710 91111 92438 555 6///5=
07201 24586 /2507 10157 20102 30084 40185 53003 700// 333 4//// 60007 90710 91111 555 60005=
07203 22581 52608 10158 20112 83102 333 60007 90710 91114 92428 555 60005=
07205 24484 /2609 10157 20107 30135 40188 53004 700// 333 4/000 60007 90710 91114 555 60005=
07207 22462 32405 10162 20107 30141 40192 53004 834// 333 60007 90710 91110 92437 555 60005=
07217 24986 /2310 10174 20105 30184 40188 53005 700// 333 4/000 60007 90710 91117 555 60005=
07222 24585 /2306 10179 20108 30153 40184 53002 700// 333 4/000 60007 90710 91113 555 60005=
07230 24/67 /2205 10197 20117 30127 40184 57002 700// 333 4/000 60007 90710 91109 555 60005=
07235 24670 72604 10200 20125 30121 40182 56002 700// 333 4/000 60007 90710 91110 555 60005=
07240 24684 /2003 10207 20127 30054 40185 53002 700// 333 4/000 60007 90710 91109 555 60005=
07245 24/18 /2506 10221 20118 30028 40179 53001 710// 333 4/000 60007 90710 91111 555 60005=
07247 24970 /2603 10244 20110 30077 40174 55000 700// 333 4//// 60007 90710 91111 555 60005=
07249 24/85 /2605 10241 20097 30027 40171 55000 700// 333 4/000 60007 90710 91110 555 60005=
07255 24/70 /3003 10249 20092 39980 40170 58004 700// 333 4/000 60007 90710 91109 555 60005=
07257 24982 /2604 10251 20072 39965 40168 56005 700// 333 4//// 60007 90710 91111 555 60005=
07260 24959 /1602 10256 20062 39967 40170 56005 700// 333 4/000 60007 90710 91108 555 60005=
07266 24970 /0202 10250 20076 39996 40172 56003 700// 333 4/000 60007 90710 91107 555 60005=
07280 24981 /0704 10238 20074 39907 40167 56005 700// 333 4/000 60007 90710 91111 555 60005=
07283 24970 /0902 10229 20053 39636 40164 58002 700// 333 4/000 60007 90710 91104 555 60005=
07288 26/// /3503 10226 20079 39813 40168 56003 333 4//// 60007 90710 91106 555 60005=
07292 24983 /2904 10244 20066 39854 40165 56004 700// 333 4/000 60007 90710 91109 555 60005=
07296 24970 /0606 10224 20070 39710 40168 56002 700// 333 4/000 60007 90710 91111 555 60005=
07299 22/70 23508 10232 20085 39855 40168 56005 80002 333 60007 82073 90710 91112 93100 555 60005=
07300 21670 42704 10166 20115 30151 40189 53004 702// 8480/ 333 60007 90710 91111 92428 555 60005=
07306 24965 /2904 10197 20101 30079 40184 55000 700// 333 4/000 60007 90710 91109 555 60005=
07314 22968 12904 10173 20120 30165 40192 55000 80001 333 60007 81076 90710 91107 555 60005=
07316 24985 /3404 10177 20106 30168 40189 53001 700// 333 4/000 69927 90710 91109 555 60005=
07330 24/68 /2801 10203 20123 30117 40189 51004 700// 333 4//// 60007 90710 91105 555 60005=
07335 24969 /2804 10196 20131 30044 40185 53001 700// 333 4/000 60007 90710 91110 555 60005=
07354 24778 73106 10230 20111 39992 40173 52001 700// 333 4/000 60007 90710 91114 555 60005=
07361 24/70 /2404 10227 20095 39749 40165 52003 700// 333 4/000 60007 90710 91110 555 60005=
07374 24/70 /1902 10249 20075 39880 40166 57005 700// 333 4/000 60007 90710 91109 555 60005=
07379 24967 /3303 10242 20073 39891 40168 57004 700// 333 4/000 60007 90710 91106 555 60005=
07385 24/70 /0306 10235 20109 39917 40168 56003 700// 333 4/000 60007 90710 91111 555 60005=
07386 24969 /2302 10232 20099 39945 40169 58004 700// 333 4/000 60007 90710 91106 555 60005=
07412 24884 83505 10204 20131 30149 40185 52002 700// 333 4//// 60007 90710 91111 555 60005=
07434 24684 /2004 10209 20121 39710 40170 51001 700// 333 4/000 60007 90710 91113 555 60005=
07438 24/70 /2904 10222 20133 30041 40177 53001 700// 333 4/000 60007 90710 91106 555 60005=
07460 24965 /1406 10236 20096 39791 40162 55005 700// 333 4/000 60007 90710 91110 555 60005=
07471 24970 81704 10178 20075 39233 4//// 55000 700// 333 4/000 60007 90710 91108 555 60005=
07475 24981 /3503 10229 20062 39715 40165 56006 700// 333 4/000 60007 90710 91108 555 60005=
07480 24981 /0203 10241 20081 39940 40167 55007 700// 333 4/000 60007 90710 91108 555 60005=
07481 22975 43103 10235 20076 39893 40168 55006 80001 333 60007 84076 90710 91107 93100 555 60005=
07482 24/70 /3203 10236 20088 39881 40170 56006 700// 333 4/000 60007 90710 91110 555 60005=
07486 24973 /2705 10223 20091 39727 40167 56006 700// 333 4/000 60007 90710 91108 555 60005=
07487 26/// /2501 10217 20120 39910 40164 55005 333 4//// 60007 90710 91107 555 60005=
07490 24981 /2505 10233 20082 39642 40156 56005 700// 333 4/000 60007 90710 91112 555 60005=
07491 24967 /3603 10222 20113 39896 40166 56007 700// 333 4/000 60007 90710 91106 555 60005=
07497 26/// /1207 10216 20046 39176 48526 55002 333 4/000 60007 90710 91120 555 60005=
07500 22963 33312 10186 20126 30150 40183 50002 82040 333 60007 83358 90710 91118 92457 555 60005=
07503 24969 /3411 10185 20138 30137 40183 51002 700// 333 4//// 60007 90710 91115 555 60005=
07510 24686 80107 10200 20135 30124 40180 53001 700// 333 4/000 60007 90710 91110 555 60005=
07524 24576 82805 10218 20154 30090 40170 58001 700// 333 4/000 60007 90710 91109 555 60005=
07530 24681 73303 10209 20152 30114 40175 55000 700// 333 4/000 60007 90710 91105 555 60005=
07535 24870 81506 10197 20132 39872 40174 55000 700// 333 4/000 60007 90710 91114 555 60005=
07540 24/69 /1409 10209 20138 30048 40173 53001 700// 333 4/000 60007 90710 91115 555 60005=
07549 24969 81504 10166 20107 39447 40178 52002 700// 333 4/000 60007 90710 91111 555 60005=
07552 24879 81109 10161 20110 39515 40180 51002 700// 333 4//// 69927 90710 91114 555 69905=
07554 24770 80000 10145 20087 39129 4//// 56002 700// 333 4/001 60007 90710 91104 555 60005=
07558 24/69 /0000 10136 20115 39363 40181 52001 700// 333 4/000 69987 90710 91105 555 60005=
07560 24/00 /1610 10073 20073 38459 4//// 53002 745// 333 4//// 69967 90710 91121 555 69925=
07563 24857 83603 10178 20158 30126 40183 56003 700// 333 4/000 60007 90710 91106 555 60005=
07570 24/70 /2505 10187 20127 39867 40193 56002 700// 333 4//// 60007 90710 91107 555 60005=
07577 24/70 /2404 10214 20120 30091 40177 56003 700// 333 4/000 60007 90710 91109 555 60005=
07579 24769 83204 10190 20145 30118 40183 55004 700// 333 4//// 60007 90710 91109 555 60005=
07586 26/// /2703 10183 20155 30057 40182 56002 333 4//// 60007 90710 91105 555 60005=
07588 24867 82207 10178 20131 39639 40169 55003 700// 333 4/000 60007 90710 91109 555 60005=
07591 24/70 /0214 10181 20050 39183 4//// 56002 700// 333 4//// 60007 90710 91124 555 60005=
07600 26/// /3104 10191 20150 30137 40188 52005 333 4//// 60007 90710 91108 555 60005=
07602 24969 /3205 10183 20148 30100 40184 52005 700// 333 4/000 60007 90710 91109 555 60005=
07603 22465 42403 10212 20139 30142 40178 55000 84100 333 60007 81710 84830 90710 91107 555 60005=
07607 24586 70102 10201 20142 30108 40177 53001 700// 333 4/000 60007 90710 91107 555 60005=
07610 24683 /3205 10194 20129 39961 40174 53004 700// 333 4/000 60007 90710 91111 555 60005=
07621 24686 60103 10179 20128 39751 40172 53004 700// 333 4/000 60007 90710 91110 555 60005=
07622 24/70 /3203 10211 20135 30022 40171 57002 700// 333 4/000 60007 90710 91107 555 60005=
07627 24570 73303 10186 20117 39688 40165 53002 700// 333 4/000 60007 90710 91109 555 60005=
07628 24550 81107 10176 20159 39949 40171 55000 761// 333 4//// 60047 90710 91118 555 60045=
07630 24582 /1209 10199 20138 39995 40170 53001 700// 333 4/000 60007 90710 91116 555 60005=
07632 24/70 /0808 10188 20139 39978 40178 53001 700// 333 4/000 69907 90710 91113 555 69905=
07635 24430 80809 10168 20160 30025 40175 50004 761// 333 4/000 60107 90710 91115 555 60025=
07638 24564 70410 10186 20158 30158 40177 56002 700// 333 4/000 69907 90710 91114 555 60005=
07641 21458 70312 10182 20151 30084 40175 56004 70262 877// 333 69907 85713 86640 90710 91118 92436 555 69905=
07643 24466 80308 10190 20153 30171 40180 55003 700// 333 4//// 69907 90710 91113 555 60005=
07645 26/// /3603 10179 20148 30109 40182 56003 333 4/000 60007 90710 91108 555 60005=
07646 24763 83604 10178 20151 30056 40180 56002 700// 333 4//// 69907 90710 91109 555 60005=
07647 24760 /3609 10199 20171 30148 40176 56001 700// 333 4//// 60007 90710 91113 555 60005=
07648 24770 83603 10182 20133 30110 40180 55000 700// 333 4//// 60007 90710 91108 555 60005=
07650 24468 70310 10209 20141 30138 40175 55000 700// 333 4/000 60007 90710 91117 555 60005=
07661 26/// /0513 10182 20162 30023 40167 56001 333 4//// 60007 90710 91123 555 60005=
07666 26/// /0713 10189 20165 30117 40164 52004 333 4//// 60037 90710 91124 555 69905=
07667 24662 80304 10195 20156 30168 40173 56001 700// 333 4//// 60007 90710 91115 555 60005=
07675 22765 81002 10204 20143 30074 40170 56004 8557/ 333 60007 84650 85657 88362 90710 91108 555 60005=
07684 24778 80000 10202 20129 30168 40173 56007 700// 333 4//// 69907 90710 91104 555 60005=
07690 21770 70205 10198 20135 30140 40171 56008 70162 8257/ 333 69927 82650 87456 90710 91109 555 60005=
07747 24469 71009 10190 20175 30118 40170 53001 700// 333 4/000 60047 90710 91112 555 69985=
07749 26/// /3009 10172 20162 30066 40167 53001 333 4//// 60057 90710 91112 555 60045=
07753 26/// /0713 10185 20173 39983 40152 58003 333 4//// 60027 90710 91127 555 69945=
07754 24458 80105 10195 20185 30085 40153 57006 700// 333 4//// 60027 90710 91113 555 60015=
07761 24969 /2407 10229 20167 30140 40150 55005 700// 333 4/000 60007 90710 91112 555 60005=
07765 24782 /0803 10211 20179 30138 40158 53005 700// 333 4//// 60007 90710 91109 555 60005=
07770 26/// /0807 10221 20179 30018 40152 53003 333 4//// 60007 90710 91112 555 60005=
07775 26/// /0917 10198 20188 30070 40156 53006 333 4//// 69947 90710 91126 555 60005=
07780 24585 /0509 10222 20167 30126 40153 53003 700// 333 4//// 60007 90710 91117 555 60005=
07785 21560 80822 10200 20154 30032 40164 56009 702// 882// 333 60007 90710 91134 92427 92427 555 60005=
07790 24582 80611 10200 20174 30149 40163 55000 700// 333 4/000 60037 90710 91120 555 60015=
08001 26/70 /2807 10177 20140 30106 40185 53001 333 60007=
08002 26/71 /0108 10177 20125 30059 40181 55000 333 60007=
08008 26/70 /0603 10190 20097 39661 40173 56004 333 60007=
08011 22375 33505 10184 20155 30029 40182 53002 82101 333 60007=
08015 22570 20803 10181 20132 39782 40175 53002 82100 333 60007=
08021 22681 10508 10194 20151 30182 40184 53003 81800 333 60007=
08023 22565 30608 10173 20149 30113 40183 53001 83800 333 60007=
08025 22580 40405 10201 20151 30133 40179 56002 84831 333 60007=
08027 41150 83303 10153 20147 39879 40184 51005 71022 886//=
08029 42568 20205 10190 20153 30176 40185 52007 82600=
08042 22680 32303 10200 20096 39749 40171 55001 83400 333 60007=
08044 22470 12003 10200 20148 30041 40167 55001 81200 333 60007=
08045 22582 22604 10201 20148 39873 40172 55001 82400 333 60007=
08048 27/70 /2703 10223 20114 39992 40162 56012 710// 333 69907=
08053 26/56 /2503 10199 20092 39534 40158 56011 333 60007=
08055 22680 21703 10171 20080 39132 48521 56004 82800 333 60007=
08075 22681 30406 10199 20079 39151 42801 54000 83500 333 69907=
08080 22680 33606 10196 20118 39582 40163 56002 83500 333 60007=
08084 22680 11902 10233 20083 39738 40150 56004 81500 333 60007=
08085 22680 43510 10201 20094 39638 40155 55000 84800 333 60007=
08094 21689 13102 10201 20105 39519 40146 55003 7020/ 81200 333 69907 81833=
08130 26/70 /0302 10176 20095 39410 40168 55000 333 60007=
08140 42580 53605 10173 20084 39206 48522 55001 84201=
08141 22580 43201 10180 20083 39327 40156 55001 84500 333 60007=
08148 26/70 /1203 10175 20070 38948 48519 53003 333 60007=
08160 22675 23403 10225 20093 39858 40154 55005 81130 333 60007=
08171 27/70 /2705 10225 20130 39923 40152 56003 710// 333 69907=
08175 23680 51603 10219 20147 30065 40154 51002 83375 333 60007 82940=
08181 22580 40911 10225 20151 30151 40157 53002 83832 333 60007=
08184 22570 50606 10201 20155 30003 40153 53003 84216 333 60007=
08202 22670 70405 10154 20091 39266 42809 53002 87500 333 60007=
08210 26/69 /3507 10155 20089 38898 48519 53002 333 60007=
08213 26/70 /3603 10174 20093 39030 48519 51003 333 60007=
08215 41/08 90602 10081 20077 38128 48517 52007 74542 89/// 333 89/03=
08221 26/80 /1602 10218 20081 39481 40135 56002 333 60007=
08224 42782 20000 10212 20081 39445 40138 58001 82100=
08226 27/18 /2503 10220 20074 39317 40121 53001 710// 333 69907=
08231 22570 73103 10191 20062 39081 42794 53004 87800 333 60007 83820 87633=
08232 26/70 /0303 10185 20070 38963 48515 52003 333 60007=
08233 27/70 /0206 10184 20062 39154 42803 53001 710// 333 69907=
08235 27/70 /0303 10186 20067 39127 42792 55001 710// 333 69907=
08238 22765 60103 10199 20140 30097 40156 56003 81230 333 60007=
08261 26/70 /0204 10198 20113 39705 40153 56002 333 60007=
08272 26/70 /3603 10220 20108 39554 40136 56003 333 60007=
08284 22583 50612 10224 20135 30074 40146 53004 81233 333 60007=
08286 26/69 /0605 10210 20149 30097 40148 53004 333 60007=
08306 21459 60607 10200 20169 30139 40145 53003 72586 84871 333 69947=
08314 21578 71104 10223 20150 30046 40146 53003 71522 85336 333 60007 81930=
08330 22789 60105 10210 20119 39934 40156 54000 84570 333 60007=
08348 22575 10705 10202 20100 39430 40138 53001 81100 333 69907=
08359 26/70 /1005 10230 20143 30038 40133 53004 333 60007=
08360 22575 60712 10232 20143 30097 40133 53003 82822 333 60007=
08373 22480 60708 10231 20120 30117 40138 53003 82328 333 60007 81818 81925=
08383 26/70 /0402 10231 20144 30123 40146 55002 333 60007=
08391 22680 40402 10228 20135 30106 40142 55003 84500 333 60007=
08410 22580 21106 10237 20131 30031 40137 55006 82200 333 60007=
08417 26/70 /3602 10185 20118 39480 40138 53004 333 60007=
08419 22780 62507 10191 20123 39480 40126 53003 86800 333 60007=
08429 42884 61105 10221 20124 30049 40136 56001 82271=
08430 21470 40805 10224 20126 30061 40133 55002 70300 81251 333 60007=
08433 22680 71007 10217 20163 30130 40133 52001 82950 333 60007 82940 85359=
08451 22584 53409 10237 20144 30111 40143 55003 85800 333 60007=
08482 22580 60906 10247 20154 30124 40132 53005 85871 333 60007=
08487 22584 70909 10240 20130 30102 40126 53004 87820 333 60007=
08495 42682 12610 10236 20146 30126 40132 55003 81530 91450 333 81640=



SMUS00 KWBC 161500
AAXX 16154